sensor_id;sensor_type;location;lat;lon;timestamp;temperature;humidity
20481;DHT22;10399;50.754;3.366;2024-03-07T00:00:54;8.70;99.90
20481;DHT22;10399;50.754;3.366;2024-03-07T00:03:21;8.70;99.90
20481;DHT22;10399;50.754;3.366;2024-03-07T00:05:51;8.80;99.90
20481;DHT22;10399;50.754;3.366;2024-03-07T00:08:18;8.60;99.90
20481;DHT22;10399;50.754;3.366;2024-03-07T00:10:46;8.50;99.90
20481;DHT22;10399;50.754;3.366;2024-03-07T00:13:13;8.60;99.90
20481;DHT22;10399;50.754;3.366;2024-03-07T00:15:40;8.70;99.90
20481;DHT22;10399;50.754;3.366;2024-03-07T00:18:08;8.80;99.90
20481;DHT22;10399;50.754;3.366;2024-03-07T00:20:38;8.70;99.90
20481;DHT22;10399;50.754;3.366;2024-03-07T00:23:05;8.90;99.90
20481;DHT22;10399;50.754;3.366;2024-03-07T00:25:33;8.70;99.90
20481;DHT22;10399;50.754;3.366;2024-03-07T00:28:00;8.70;99.90
20481;DHT22;10399;50.754;3.366;2024-03-07T00:30:30;8.80;99.90
20481;DHT22;10399;50.754;3.366;2024-03-07T00:32:57;8.80;99.90
20481;DHT22;10399;50.754;3.366;2024-03-07T00:35:24;8.90;99.90
20481;DHT22;10399;50.754;3.366;2024-03-07T00:37:52;8.80;99.90
20481;DHT22;10399;50.754;3.366;2024-03-07T00:40:19;8.80;99.90
20481;DHT22;10399;50.754;3.366;2024-03-07T00:42:46;8.90;99.90
20481;DHT22;10399;50.754;3.366;2024-03-07T00:45:13;8.90;99.90
20481;DHT22;10399;50.754;3.366;2024-03-07T00:47:40;8.90;99.90
20481;DHT22;10399;50.754;3.366;2024-03-07T00:50:08;8.90;99.90
20481;DHT22;10399;50.754;3.366;2024-03-07T00:52:36;9.00;99.90
20481;DHT22;10399;50.754;3.366;2024-03-07T00:55:04;9.00;99.90
20481;DHT22;10399;50.754;3.366;2024-03-07T00:57:31;9.00;99.90
20481;DHT22;10399;50.754;3.366;2024-03-07T00:59:58;9.10;99.90
20481;DHT22;10399;50.754;3.366;2024-03-07T01:02:25;9.10;99.90
20481;DHT22;10399;50.754;3.366;2024-03-07T01:04:53;9.00;99.90
20481;DHT22;10399;50.754;3.366;2024-03-07T01:07:21;9.00;99.90
20481;DHT22;10399;50.754;3.366;2024-03-07T01:09:50;8.90;99.90
20481;DHT22;10399;50.754;3.366;2024-03-07T01:12:18;9.10;99.90
20481;DHT22;10399;50.754;3.366;2024-03-07T01:14:47;9.10;99.90
20481;DHT22;10399;50.754;3.366;2024-03-07T01:17:14;9.10;99.90
20481;DHT22;10399;50.754;3.366;2024-03-07T01:19:41;9.10;99.90
20481;DHT22;10399;50.754;3.366;2024-03-07T01:22:08;9.20;99.90
20481;DHT22;10399;50.754;3.366;2024-03-07T01:24:35;9.20;99.90
20481;DHT22;10399;50.754;3.366;2024-03-07T01:27:02;9.20;99.90
20481;DHT22;10399;50.754;3.366;2024-03-07T01:29:30;9.20;99.90
20481;DHT22;10399;50.754;3.366;2024-03-07T01:31:57;9.20;99.90
20481;DHT22;10399;50.754;3.366;2024-03-07T01:34:24;9.10;99.90
20481;DHT22;10399;50.754;3.366;2024-03-07T01:36:51;8.90;99.90
20481;DHT22;10399;50.754;3.366;2024-03-07T01:39:18;9.00;99.90
20481;DHT22;10399;50.754;3.366;2024-03-07T01:41:46;8.90;99.90
20481;DHT22;10399;50.754;3.366;2024-03-07T01:44:15;9.00;99.90
20481;DHT22;10399;50.754;3.366;2024-03-07T01:46:42;9.00;99.90
20481;DHT22;10399;50.754;3.366;2024-03-07T01:49:09;8.90;99.90
20481;DHT22;10399;50.754;3.366;2024-03-07T01:51:37;9.00;99.90
20481;DHT22;10399;50.754;3.366;2024-03-07T01:54:08;9.00;99.90
20481;DHT22;10399;50.754;3.366;2024-03-07T01:56:36;8.90;99.90
20481;DHT22;10399;50.754;3.366;2024-03-07T01:59:05;8.80;99.90
20481;DHT22;10399;50.754;3.366;2024-03-07T02:01:34;8.70;99.90
20481;DHT22;10399;50.754;3.366;2024-03-07T02:04:05;8.70;99.90
20481;DHT22;10399;50.754;3.366;2024-03-07T02:06:33;8.60;99.90
20481;DHT22;10399;50.754;3.366;2024-03-07T02:09:00;8.50;99.90
20481;DHT22;10399;50.754;3.366;2024-03-07T02:11:29;8.40;99.90
20481;DHT22;10399;50.754;3.366;2024-03-07T02:13:57;8.40;99.90
20481;DHT22;10399;50.754;3.366;2024-03-07T02:16:24;8.20;99.90
20481;DHT22;10399;50.754;3.366;2024-03-07T02:18:51;8.40;99.90
20481;DHT22;10399;50.754;3.366;2024-03-07T02:21:18;8.30;99.90
20481;DHT22;10399;50.754;3.366;2024-03-07T02:23:45;8.40;99.90
20481;DHT22;10399;50.754;3.366;2024-03-07T02:26:12;8.30;99.90
20481;DHT22;10399;50.754;3.366;2024-03-07T02:28:40;8.30;99.90
20481;DHT22;10399;50.754;3.366;2024-03-07T02:31:07;8.20;99.90
20481;DHT22;10399;50.754;3.366;2024-03-07T02:33:34;8.10;99.90
20481;DHT22;10399;50.754;3.366;2024-03-07T02:36:01;8.20;99.90
20481;DHT22;10399;50.754;3.366;2024-03-07T02:38:28;8.10;99.90
20481;DHT22;10399;50.754;3.366;2024-03-07T02:40:55;8.20;99.90
20481;DHT22;10399;50.754;3.366;2024-03-07T02:43:25;8.30;99.90
20481;DHT22;10399;50.754;3.366;2024-03-07T02:45:52;8.20;99.90
20481;DHT22;10399;50.754;3.366;2024-03-07T02:48:19;8.20;99.90
20481;DHT22;10399;50.754;3.366;2024-03-07T02:50:46;8.30;99.90
20481;DHT22;10399;50.754;3.366;2024-03-07T02:53:14;8.30;99.90
20481;DHT22;10399;50.754;3.366;2024-03-07T02:55:41;8.30;99.90
20481;DHT22;10399;50.754;3.366;2024-03-07T02:58:08;8.20;99.90
20481;DHT22;10399;50.754;3.366;2024-03-07T03:00:36;8.10;99.90
20481;DHT22;10399;50.754;3.366;2024-03-07T03:03:03;8.10;99.90
20481;DHT22;10399;50.754;3.366;2024-03-07T03:05:30;8.10;99.90
20481;DHT22;10399;50.754;3.366;2024-03-07T03:07:57;8.10;99.90
20481;DHT22;10399;50.754;3.366;2024-03-07T03:10:25;8.10;99.90
20481;DHT22;10399;50.754;3.366;2024-03-07T03:12:54;8.10;99.90
20481;DHT22;10399;50.754;3.366;2024-03-07T03:15:22;8.10;99.90
20481;DHT22;10399;50.754;3.366;2024-03-07T03:17:50;8.20;99.90
20481;DHT22;10399;50.754;3.366;2024-03-07T03:20:18;8.20;99.90
20481;DHT22;10399;50.754;3.366;2024-03-07T03:22:52;8.10;99.90
20481;DHT22;10399;50.754;3.366;2024-03-07T03:25:40;8.10;99.90
20481;DHT22;10399;50.754;3.366;2024-03-07T03:28:08;7.90;99.90
20481;DHT22;10399;50.754;3.366;2024-03-07T03:30:40;7.90;99.90
20481;DHT22;10399;50.754;3.366;2024-03-07T03:33:08;7.80;99.90
20481;DHT22;10399;50.754;3.366;2024-03-07T03:35:37;7.70;99.90
20481;DHT22;10399;50.754;3.366;2024-03-07T03:38:06;7.90;99.90
20481;DHT22;10399;50.754;3.366;2024-03-07T03:40:34;8.00;99.90
20481;DHT22;10399;50.754;3.366;2024-03-07T03:43:02;7.90;99.90
20481;DHT22;10399;50.754;3.366;2024-03-07T03:45:29;7.70;99.90
20481;DHT22;10399;50.754;3.366;2024-03-07T03:47:57;7.50;99.90
20481;DHT22;10399;50.754;3.366;2024-03-07T03:50:24;7.60;99.90
20481;DHT22;10399;50.754;3.366;2024-03-07T03:52:52;7.60;99.90
20481;DHT22;10399;50.754;3.366;2024-03-07T03:55:19;7.70;99.90
20481;DHT22;10399;50.754;3.366;2024-03-07T03:57:48;7.60;99.90
20481;DHT22;10399;50.754;3.366;2024-03-07T04:00:16;7.60;99.90
20481;DHT22;10399;50.754;3.366;2024-03-07T04:02:45;7.50;99.90
20481;DHT22;10399;50.754;3.366;2024-03-07T04:05:17;7.50;99.90
20481;DHT22;10399;50.754;3.366;2024-03-07T04:07:45;7.60;99.90
20481;DHT22;10399;50.754;3.366;2024-03-07T04:10:14;7.50;99.90
20481;DHT22;10399;50.754;3.366;2024-03-07T04:12:41;7.40;99.90
20481;DHT22;10399;50.754;3.366;2024-03-07T04:15:10;7.20;99.90
20481;DHT22;10399;50.754;3.366;2024-03-07T04:17:38;7.30;99.90
20481;DHT22;10399;50.754;3.366;2024-03-07T04:20:06;7.20;99.90
20481;DHT22;10399;50.754;3.366;2024-03-07T04:22:34;7.10;99.90
20481;DHT22;10399;50.754;3.366;2024-03-07T04:25:02;7.20;99.90
20481;DHT22;10399;50.754;3.366;2024-03-07T04:27:29;7.20;99.90
20481;DHT22;10399;50.754;3.366;2024-03-07T04:29:57;7.20;99.90
20481;DHT22;10399;50.754;3.366;2024-03-07T04:32:24;7.20;99.90
20481;DHT22;10399;50.754;3.366;2024-03-07T04:34:51;7.30;99.90
20481;DHT22;10399;50.754;3.366;2024-03-07T04:37:18;7.30;99.90
20481;DHT22;10399;50.754;3.366;2024-03-07T04:39:45;7.20;99.90
20481;DHT22;10399;50.754;3.366;2024-03-07T04:42:12;7.30;99.90
20481;DHT22;10399;50.754;3.366;2024-03-07T04:44:40;7.30;99.90
20481;DHT22;10399;50.754;3.366;2024-03-07T04:47:07;7.30;99.90
20481;DHT22;10399;50.754;3.366;2024-03-07T04:49:34;7.20;99.90
20481;DHT22;10399;50.754;3.366;2024-03-07T04:52:02;7.20;99.90
20481;DHT22;10399;50.754;3.366;2024-03-07T04:54:30;7.20;99.90
20481;DHT22;10399;50.754;3.366;2024-03-07T04:56:58;7.30;99.90
20481;DHT22;10399;50.754;3.366;2024-03-07T04:59:26;7.30;99.90
20481;DHT22;10399;50.754;3.366;2024-03-07T05:01:53;7.20;99.90
20481;DHT22;10399;50.754;3.366;2024-03-07T05:04:20;7.30;99.90
20481;DHT22;10399;50.754;3.366;2024-03-07T05:06:46;7.40;99.90
20481;DHT22;10399;50.754;3.366;2024-03-07T05:09:15;7.30;99.90
20481;DHT22;10399;50.754;3.366;2024-03-07T05:11:53;7.30;99.90
20481;DHT22;10399;50.754;3.366;2024-03-07T05:14:21;7.40;99.90
20481;DHT22;10399;50.754;3.366;2024-03-07T05:16:54;7.30;99.90
20481;DHT22;10399;50.754;3.366;2024-03-07T05:19:35;7.30;99.90
20481;DHT22;10399;50.754;3.366;2024-03-07T05:22:03;7.20;99.90
20481;DHT22;10399;50.754;3.366;2024-03-07T05:24:32;7.20;99.90
20481;DHT22;10399;50.754;3.366;2024-03-07T05:27:01;7.30;99.90
20481;DHT22;10399;50.754;3.366;2024-03-07T05:29:28;7.20;99.90
20481;DHT22;10399;50.754;3.366;2024-03-07T05:31:55;6.90;99.90
20481;DHT22;10399;50.754;3.366;2024-03-07T05:34:22;6.80;99.90
20481;DHT22;10399;50.754;3.366;2024-03-07T05:36:50;6.80;99.90
20481;DHT22;10399;50.754;3.366;2024-03-07T05:39:18;6.90;99.90
20481;DHT22;10399;50.754;3.366;2024-03-07T05:41:45;7.00;99.90
20481;DHT22;10399;50.754;3.366;2024-03-07T05:44:13;6.90;99.90
20481;DHT22;10399;50.754;3.366;2024-03-07T05:46:42;6.90;99.90
20481;DHT22;10399;50.754;3.366;2024-03-07T05:49:16;7.00;99.90
20481;DHT22;10399;50.754;3.366;2024-03-07T05:51:47;7.00;99.90
20481;DHT22;10399;50.754;3.366;2024-03-07T05:54:14;7.10;99.90
20481;DHT22;10399;50.754;3.366;2024-03-07T05:56:41;7.00;99.90
20481;DHT22;10399;50.754;3.366;2024-03-07T05:59:09;7.00;99.90
20481;DHT22;10399;50.754;3.366;2024-03-07T06:01:39;6.90;99.90
20481;DHT22;10399;50.754;3.366;2024-03-07T06:04:07;6.90;99.90
20481;DHT22;10399;50.754;3.366;2024-03-07T06:06:37;7.00;99.90
20481;DHT22;10399;50.754;3.366;2024-03-07T06:09:07;7.10;99.90
20481;DHT22;10399;50.754;3.366;2024-03-07T06:11:35;7.10;99.90
20481;DHT22;10399;50.754;3.366;2024-03-07T06:14:06;7.10;99.90
20481;DHT22;10399;50.754;3.366;2024-03-07T06:16:36;7.10;99.90
20481;DHT22;10399;50.754;3.366;2024-03-07T06:19:04;7.10;99.90
20481;DHT22;10399;50.754;3.366;2024-03-07T06:21:37;7.10;99.90
20481;DHT22;10399;50.754;3.366;2024-03-07T06:24:06;7.20;99.90
20481;DHT22;10399;50.754;3.366;2024-03-07T06:26:37;7.10;99.90
20481;DHT22;10399;50.754;3.366;2024-03-07T06:29:17;7.00;99.90
20481;DHT22;10399;50.754;3.366;2024-03-07T06:31:45;7.10;99.90
20481;DHT22;10399;50.754;3.366;2024-03-07T06:34:16;7.20;99.90
20481;DHT22;10399;50.754;3.366;2024-03-07T06:36:44;7.10;99.90
20481;DHT22;10399;50.754;3.366;2024-03-07T06:39:11;7.20;99.90
20481;DHT22;10399;50.754;3.366;2024-03-07T06:41:39;7.20;99.90
20481;DHT22;10399;50.754;3.366;2024-03-07T06:44:07;7.30;99.90
20481;DHT22;10399;50.754;3.366;2024-03-07T06:46:37;7.30;99.90
20481;DHT22;10399;50.754;3.366;2024-03-07T06:49:04;7.10;99.90
20481;DHT22;10399;50.754;3.366;2024-03-07T06:51:37;7.20;99.90
20481;DHT22;10399;50.754;3.366;2024-03-07T06:54:06;7.20;99.90
20481;DHT22;10399;50.754;3.366;2024-03-07T06:56:33;7.20;99.90
20481;DHT22;10399;50.754;3.366;2024-03-07T06:59:00;7.20;99.90
20481;DHT22;10399;50.754;3.366;2024-03-07T07:01:31;7.20;99.90
20481;DHT22;10399;50.754;3.366;2024-03-07T07:03:58;7.20;99.90
20481;DHT22;10399;50.754;3.366;2024-03-07T07:06:30;7.40;99.90
20481;DHT22;10399;50.754;3.366;2024-03-07T07:08:58;7.30;99.90
20481;DHT22;10399;50.754;3.366;2024-03-07T07:11:26;7.30;99.90
20481;DHT22;10399;50.754;3.366;2024-03-07T07:14:01;7.40;99.90
20481;DHT22;10399;50.754;3.366;2024-03-07T07:16:29;7.50;99.90
20481;DHT22;10399;50.754;3.366;2024-03-07T07:19:11;7.50;99.90
20481;DHT22;10399;50.754;3.366;2024-03-07T07:21:39;7.20;99.90
20481;DHT22;10399;50.754;3.366;2024-03-07T07:24:08;7.60;99.90
20481;DHT22;10399;50.754;3.366;2024-03-07T07:26:35;7.60;99.90
20481;DHT22;10399;50.754;3.366;2024-03-07T07:29:02;7.60;99.90
20481;DHT22;10399;50.754;3.366;2024-03-07T07:31:31;7.70;99.90
20481;DHT22;10399;50.754;3.366;2024-03-07T07:33:59;7.80;99.90
20481;DHT22;10399;50.754;3.366;2024-03-07T07:36:26;7.80;99.90
20481;DHT22;10399;50.754;3.366;2024-03-07T07:38:57;7.90;99.90
20481;DHT22;10399;50.754;3.366;2024-03-07T07:41:25;7.90;99.90
20481;DHT22;10399;50.754;3.366;2024-03-07T07:43:52;7.90;99.90
20481;DHT22;10399;50.754;3.366;2024-03-07T07:46:20;7.80;99.90
20481;DHT22;10399;50.754;3.366;2024-03-07T07:48:47;8.00;99.90
20481;DHT22;10399;50.754;3.366;2024-03-07T07:51:14;8.10;99.90
20481;DHT22;10399;50.754;3.366;2024-03-07T07:53:40;8.00;99.90
20481;DHT22;10399;50.754;3.366;2024-03-07T07:56:08;8.10;99.90
20481;DHT22;10399;50.754;3.366;2024-03-07T07:58:35;8.10;99.90
20481;DHT22;10399;50.754;3.366;2024-03-07T08:01:02;8.00;99.90
20481;DHT22;10399;50.754;3.366;2024-03-07T08:03:29;8.10;99.90
20481;DHT22;10399;50.754;3.366;2024-03-07T08:05:57;7.90;99.90
20481;DHT22;10399;50.754;3.366;2024-03-07T08:08:24;8.10;99.90
20481;DHT22;10399;50.754;3.366;2024-03-07T08:10:51;8.00;99.90
20481;DHT22;10399;50.754;3.366;2024-03-07T08:13:18;8.00;99.90
20481;DHT22;10399;50.754;3.366;2024-03-07T08:15:45;8.10;99.90
20481;DHT22;10399;50.754;3.366;2024-03-07T08:18:15;8.10;99.90
20481;DHT22;10399;50.754;3.366;2024-03-07T08:20:44;8.30;99.90
20481;DHT22;10399;50.754;3.366;2024-03-07T08:23:11;8.40;99.90
20481;DHT22;10399;50.754;3.366;2024-03-07T08:25:39;8.70;99.90
20481;DHT22;10399;50.754;3.366;2024-03-07T08:28:09;8.70;99.90
20481;DHT22;10399;50.754;3.366;2024-03-07T08:30:36;8.60;99.90
20481;DHT22;10399;50.754;3.366;2024-03-07T08:33:03;8.50;99.90
20481;DHT22;10399;50.754;3.366;2024-03-07T08:35:34;8.50;99.90
20481;DHT22;10399;50.754;3.366;2024-03-07T08:38:01;8.60;99.90
20481;DHT22;10399;50.754;3.366;2024-03-07T08:40:29;8.70;99.90
20481;DHT22;10399;50.754;3.366;2024-03-07T08:43:01;8.90;99.90
20481;DHT22;10399;50.754;3.366;2024-03-07T08:45:30;8.90;99.90
20481;DHT22;10399;50.754;3.366;2024-03-07T08:48:02;9.00;99.90
20481;DHT22;10399;50.754;3.366;2024-03-07T08:50:32;9.20;99.90
20481;DHT22;10399;50.754;3.366;2024-03-07T08:53:01;9.50;99.90
20481;DHT22;10399;50.754;3.366;2024-03-07T08:55:29;9.70;99.90
20481;DHT22;10399;50.754;3.366;2024-03-07T08:57:56;9.70;99.90
20481;DHT22;10399;50.754;3.366;2024-03-07T09:00:23;9.90;99.90
20481;DHT22;10399;50.754;3.366;2024-03-07T09:02:55;10.20;99.90
20481;DHT22;10399;50.754;3.366;2024-03-07T09:05:26;10.20;99.90
20481;DHT22;10399;50.754;3.366;2024-03-07T09:07:54;10.60;99.90
20481;DHT22;10399;50.754;3.366;2024-03-07T09:10:21;10.50;99.90
20481;DHT22;10399;50.754;3.366;2024-03-07T09:12:50;10.70;99.90
20481;DHT22;10399;50.754;3.366;2024-03-07T09:15:19;11.00;99.90
20481;DHT22;10399;50.754;3.366;2024-03-07T09:17:49;11.30;99.90
20481;DHT22;10399;50.754;3.366;2024-03-07T09:20:16;11.50;99.90
20481;DHT22;10399;50.754;3.366;2024-03-07T09:22:46;11.60;99.90
20481;DHT22;10399;50.754;3.366;2024-03-07T09:25:15;11.80;99.90
20481;DHT22;10399;50.754;3.366;2024-03-07T09:27:43;11.90;99.90
20481;DHT22;10399;50.754;3.366;2024-03-07T09:30:11;11.60;99.90
20481;DHT22;10399;50.754;3.366;2024-03-07T09:32:40;11.90;99.90
20481;DHT22;10399;50.754;3.366;2024-03-07T09:35:09;12.20;99.90
20481;DHT22;10399;50.754;3.366;2024-03-07T09:37:43;12.50;99.90
20481;DHT22;10399;50.754;3.366;2024-03-07T09:40:11;12.60;99.90
20481;DHT22;10399;50.754;3.366;2024-03-07T09:42:43;12.60;99.90
20481;DHT22;10399;50.754;3.366;2024-03-07T09:45:16;12.70;99.90
20481;DHT22;10399;50.754;3.366;2024-03-07T09:47:49;12.80;99.90
20481;DHT22;10399;50.754;3.366;2024-03-07T09:50:19;12.90;99.90
20481;DHT22;10399;50.754;3.366;2024-03-07T09:52:50;13.20;99.90
20481;DHT22;10399;50.754;3.366;2024-03-07T09:55:19;13.50;99.90
20481;DHT22;10399;50.754;3.366;2024-03-07T09:57:49;13.60;99.90
20481;DHT22;10399;50.754;3.366;2024-03-07T10:00:18;13.60;99.90
20481;DHT22;10399;50.754;3.366;2024-03-07T10:03:09;13.70;99.90
20481;DHT22;10399;50.754;3.366;2024-03-07T10:05:38;13.50;99.90
20481;DHT22;10399;50.754;3.366;2024-03-07T10:08:06;13.20;99.90
20481;DHT22;10399;50.754;3.366;2024-03-07T10:10:34;14.00;99.90
20481;DHT22;10399;50.754;3.366;2024-03-07T10:13:01;14.10;99.90
20481;DHT22;10399;50.754;3.366;2024-03-07T10:15:30;14.10;99.90
20481;DHT22;10399;50.754;3.366;2024-03-07T10:17:59;14.20;99.90
20481;DHT22;10399;50.754;3.366;2024-03-07T10:20:28;14.30;99.90
20481;DHT22;10399;50.754;3.366;2024-03-07T10:22:55;14.80;99.90
20481;DHT22;10399;50.754;3.366;2024-03-07T10:25:24;15.20;99.90
20481;DHT22;10399;50.754;3.366;2024-03-07T10:27:53;15.30;99.90
20481;DHT22;10399;50.754;3.366;2024-03-07T10:30:21;15.50;99.90
20481;DHT22;10399;50.754;3.366;2024-03-07T10:32:55;15.50;99.90
20481;DHT22;10399;50.754;3.366;2024-03-07T10:35:23;15.60;99.90
20481;DHT22;10399;50.754;3.366;2024-03-07T10:37:54;15.70;99.90
20481;DHT22;10399;50.754;3.366;2024-03-07T10:40:22;16.00;99.90
20481;DHT22;10399;50.754;3.366;2024-03-07T10:42:49;16.10;99.90
20481;DHT22;10399;50.754;3.366;2024-03-07T10:45:21;16.20;99.90
20481;DHT22;10399;50.754;3.366;2024-03-07T10:47:53;16.20;99.90
20481;DHT22;10399;50.754;3.366;2024-03-07T10:56:16;15.90;99.90
20481;DHT22;10399;50.754;3.366;2024-03-07T11:01:19;15.60;99.90
20481;DHT22;10399;50.754;3.366;2024-03-07T11:03:47;15.80;99.90
20481;DHT22;10399;50.754;3.366;2024-03-07T11:06:19;16.20;99.90
20481;DHT22;10399;50.754;3.366;2024-03-07T11:08:47;16.20;99.90
20481;DHT22;10399;50.754;3.366;2024-03-07T11:11:14;16.20;99.90
20481;DHT22;10399;50.754;3.366;2024-03-07T11:13:42;16.50;99.90
20481;DHT22;10399;50.754;3.366;2024-03-07T11:16:10;16.80;99.90
20481;DHT22;10399;50.754;3.366;2024-03-07T11:18:38;16.80;99.90
20481;DHT22;10399;50.754;3.366;2024-03-07T11:21:05;16.50;99.90
20481;DHT22;10399;50.754;3.366;2024-03-07T11:23:35;16.70;99.90
20481;DHT22;10399;50.754;3.366;2024-03-07T11:26:10;16.90;99.90
20481;DHT22;10399;50.754;3.366;2024-03-07T11:28:40;17.00;99.90
20481;DHT22;10399;50.754;3.366;2024-03-07T11:31:14;17.00;99.90
20481;DHT22;10399;50.754;3.366;2024-03-07T11:33:42;17.20;99.90
20481;DHT22;10399;50.754;3.366;2024-03-07T11:36:11;17.50;99.90
20481;DHT22;10399;50.754;3.366;2024-03-07T11:38:48;17.60;99.90
20481;DHT22;10399;50.754;3.366;2024-03-07T11:41:19;17.50;99.90
20481;DHT22;10399;50.754;3.366;2024-03-07T11:43:46;17.10;99.90
20481;DHT22;10399;50.754;3.366;2024-03-07T11:46:14;17.30;99.90
20481;DHT22;10399;50.754;3.366;2024-03-07T11:48:44;17.50;99.90
20481;DHT22;10399;50.754;3.366;2024-03-07T11:51:13;17.50;99.90
20481;DHT22;10399;50.754;3.366;2024-03-07T11:53:40;17.50;99.90
20481;DHT22;10399;50.754;3.366;2024-03-07T11:56:08;17.70;99.90
20481;DHT22;10399;50.754;3.366;2024-03-07T11:58:40;18.20;99.90
20481;DHT22;10399;50.754;3.366;2024-03-07T12:01:08;18.30;99.90
20481;DHT22;10399;50.754;3.366;2024-03-07T12:03:38;18.20;99.90
20481;DHT22;10399;50.754;3.366;2024-03-07T12:06:05;17.80;99.90
20481;DHT22;10399;50.754;3.366;2024-03-07T12:08:32;17.60;99.90
20481;DHT22;10399;50.754;3.366;2024-03-07T12:10:59;17.60;99.90
20481;DHT22;10399;50.754;3.366;2024-03-07T12:13:26;17.40;99.90
20481;DHT22;10399;50.754;3.366;2024-03-07T12:15:55;17.40;99.90
20481;DHT22;10399;50.754;3.366;2024-03-07T12:18:23;17.50;99.90
20481;DHT22;10399;50.754;3.366;2024-03-07T12:20:51;17.50;99.90
20481;DHT22;10399;50.754;3.366;2024-03-07T12:23:23;17.70;99.90
20481;DHT22;10399;50.754;3.366;2024-03-07T12:26:03;17.50;99.90
20481;DHT22;10399;50.754;3.366;2024-03-07T12:28:31;17.70;99.90
20481;DHT22;10399;50.754;3.366;2024-03-07T12:31:02;17.40;99.90
20481;DHT22;10399;50.754;3.366;2024-03-07T12:33:31;17.60;99.90
20481;DHT22;10399;50.754;3.366;2024-03-07T12:36:02;17.60;99.90
20481;DHT22;10399;50.754;3.366;2024-03-07T12:38:38;17.60;99.90
20481;DHT22;10399;50.754;3.366;2024-03-07T12:41:09;17.70;99.90
20481;DHT22;10399;50.754;3.366;2024-03-07T12:43:44;17.90;99.90
20481;DHT22;10399;50.754;3.366;2024-03-07T12:46:16;17.80;99.90
20481;DHT22;10399;50.754;3.366;2024-03-07T12:48:44;18.10;99.90
20481;DHT22;10399;50.754;3.366;2024-03-07T12:51:13;17.70;99.90
20481;DHT22;10399;50.754;3.366;2024-03-07T12:53:47;18.00;99.90
20481;DHT22;10399;50.754;3.366;2024-03-07T12:56:15;18.10;99.90
20481;DHT22;10399;50.754;3.366;2024-03-07T12:58:46;18.10;99.90
20481;DHT22;10399;50.754;3.366;2024-03-07T13:01:14;17.90;99.90
20481;DHT22;10399;50.754;3.366;2024-03-07T13:03:42;18.00;99.90
20481;DHT22;10399;50.754;3.366;2024-03-07T13:06:11;18.00;99.90
20481;DHT22;10399;50.754;3.366;2024-03-07T13:08:39;17.80;99.90
20481;DHT22;10399;50.754;3.366;2024-03-07T13:11:08;18.00;99.90
20481;DHT22;10399;50.754;3.366;2024-03-07T13:13:37;18.00;99.90
20481;DHT22;10399;50.754;3.366;2024-03-07T13:16:04;18.10;99.90
20481;DHT22;10399;50.754;3.366;2024-03-07T13:18:32;18.00;99.90
20481;DHT22;10399;50.754;3.366;2024-03-07T13:21:02;17.20;99.90
20481;DHT22;10399;50.754;3.366;2024-03-07T13:23:31;17.30;99.90
20481;DHT22;10399;50.754;3.366;2024-03-07T13:26:01;17.30;99.90
20481;DHT22;10399;50.754;3.366;2024-03-07T13:28:28;16.80;99.90
20481;DHT22;10399;50.754;3.366;2024-03-07T13:30:56;17.30;99.90
20481;DHT22;10399;50.754;3.366;2024-03-07T13:33:24;17.00;99.90
20481;DHT22;10399;50.754;3.366;2024-03-07T13:35:52;16.80;99.90
20481;DHT22;10399;50.754;3.366;2024-03-07T13:38:20;17.00;99.90
20481;DHT22;10399;50.754;3.366;2024-03-07T13:40:47;17.20;99.90
20481;DHT22;10399;50.754;3.366;2024-03-07T13:43:17;17.50;99.90
20481;DHT22;10399;50.754;3.366;2024-03-07T13:45:45;17.20;99.90
20481;DHT22;10399;50.754;3.366;2024-03-07T13:48:15;17.30;99.90
20481;DHT22;10399;50.754;3.366;2024-03-07T13:50:45;17.40;99.90
20481;DHT22;10399;50.754;3.366;2024-03-07T13:53:24;17.50;99.90
20481;DHT22;10399;50.754;3.366;2024-03-07T14:07:47;17.20;99.90
20481;DHT22;10399;50.754;3.366;2024-03-07T14:27:36;17.80;99.90
20481;DHT22;10399;50.754;3.366;2024-03-07T14:30:19;17.90;99.90
20481;DHT22;10399;50.754;3.366;2024-03-07T14:32:55;17.70;99.90
20481;DHT22;10399;50.754;3.366;2024-03-07T14:40:40;17.80;99.90
20481;DHT22;10399;50.754;3.366;2024-03-07T14:43:07;17.80;99.90
20481;DHT22;10399;50.754;3.366;2024-03-07T14:45:40;17.50;99.90
20481;DHT22;10399;50.754;3.366;2024-03-07T14:48:07;17.50;99.90
20481;DHT22;10399;50.754;3.366;2024-03-07T14:50:41;17.40;99.90
20481;DHT22;10399;50.754;3.366;2024-03-07T14:53:08;17.40;99.90
20481;DHT22;10399;50.754;3.366;2024-03-07T14:55:37;17.40;99.90
20481;DHT22;10399;50.754;3.366;2024-03-07T14:58:05;17.50;99.90
20481;DHT22;10399;50.754;3.366;2024-03-07T15:00:38;17.40;99.90
20481;DHT22;10399;50.754;3.366;2024-03-07T15:03:22;17.70;99.90
20481;DHT22;10399;50.754;3.366;2024-03-07T15:05:50;17.30;99.90
20481;DHT22;10399;50.754;3.366;2024-03-07T15:08:18;17.00;99.90
20481;DHT22;10399;50.754;3.366;2024-03-07T15:11:11;17.00;99.90
20481;DHT22;10399;50.754;3.366;2024-03-07T15:13:44;17.20;99.90
20481;DHT22;10399;50.754;3.366;2024-03-07T15:16:13;16.80;99.90
20481;DHT22;10399;50.754;3.366;2024-03-07T15:18:58;16.70;99.90
20481;DHT22;10399;50.754;3.366;2024-03-07T15:21:25;16.50;99.90
20481;DHT22;10399;50.754;3.366;2024-03-07T15:23:54;16.20;99.90
20481;DHT22;10399;50.754;3.366;2024-03-07T15:26:22;16.10;99.90
20481;DHT22;10399;50.754;3.366;2024-03-07T15:28:51;15.90;99.90
20481;DHT22;10399;50.754;3.366;2024-03-07T15:31:19;15.80;99.90
20481;DHT22;10399;50.754;3.366;2024-03-07T15:33:47;15.60;99.90
20481;DHT22;10399;50.754;3.366;2024-03-07T15:36:15;15.80;99.90
20481;DHT22;10399;50.754;3.366;2024-03-07T15:38:43;15.80;99.90
20481;DHT22;10399;50.754;3.366;2024-03-07T15:41:10;15.60;99.90
20481;DHT22;10399;50.754;3.366;2024-03-07T15:43:39;15.40;99.90
20481;DHT22;10399;50.754;3.366;2024-03-07T15:46:13;15.40;99.90
20481;DHT22;10399;50.754;3.366;2024-03-07T15:48:44;15.30;99.90
20481;DHT22;10399;50.754;3.366;2024-03-07T15:51:12;15.40;99.90
20481;DHT22;10399;50.754;3.366;2024-03-07T15:53:41;15.20;99.90
20481;DHT22;10399;50.754;3.366;2024-03-07T15:56:09;15.30;99.90
20481;DHT22;10399;50.754;3.366;2024-03-07T15:58:36;15.20;99.90
20481;DHT22;10399;50.754;3.366;2024-03-07T16:01:03;15.10;99.90
20481;DHT22;10399;50.754;3.366;2024-03-07T16:03:30;15.00;99.90
20481;DHT22;10399;50.754;3.366;2024-03-07T16:05:58;14.70;99.90
20481;DHT22;10399;50.754;3.366;2024-03-07T16:08:25;14.50;99.90
20481;DHT22;10399;50.754;3.366;2024-03-07T16:10:52;14.40;99.90
20481;DHT22;10399;50.754;3.366;2024-03-07T16:13:19;14.20;99.90
20481;DHT22;10399;50.754;3.366;2024-03-07T16:15:47;14.00;99.90
20481;DHT22;10399;50.754;3.366;2024-03-07T16:18:15;13.90;99.90
20481;DHT22;10399;50.754;3.366;2024-03-07T16:20:43;13.80;99.90
20481;DHT22;10399;50.754;3.366;2024-03-07T16:23:14;13.60;99.90
20481;DHT22;10399;50.754;3.366;2024-03-07T16:25:43;13.60;99.90
20481;DHT22;10399;50.754;3.366;2024-03-07T16:28:11;13.60;99.90
20481;DHT22;10399;50.754;3.366;2024-03-07T16:30:39;13.60;99.90
20481;DHT22;10399;50.754;3.366;2024-03-07T16:33:11;13.70;99.90